Myrtle Beach, SC (29572)

10:01 AM EDT on July 23, 2016 (GMT -0400)
Green Lake | | Change Station

Elev 39 ft 33.78 °N, 78.78 °W | Updated 7 seconds ago

Mostly Cloudy
Mostly Cloudy
81.7 °F
Feels Like 90 °F
N
0.0
Wind Variable Wind from South
Gusts 0.0 mph

Today
High -- | Low -- °F
--% Chance of Precip.
Yesterday
High -- | Low -- °F
Precip. -- in
Pressure 30.04 in
Visibility 10.0 miles
Clouds Few 1500 ft
Scattered Clouds 2500 ft
Mostly Cloudy 6000 ft
Heat Index 90 °F
Dew Point 77 °F
Humidity 86%
Rainfall 0.00 in
Snow Depth Not available.
6:21 AM 8:21 PM
Waning Gibbous, 85% visible
METAR KCRE 231353Z 16006KT 10SM FEW015 SCT025 BKN060 27/24 A3004 RMK AO1 LTG DSNT SE AND S SLP172 T02720239
Pressure 30.04 in
Visibility 10.0 miles
Clouds Few 1500 ft
Scattered Clouds 2500 ft
Mostly Cloudy 6000 ft
Heat Index 90 °F
Dew Point 77 °F
Humidity 86%
Rainfall 0.00 in
Snow Depth Not available.
6:21 AM 8:21 PM
Waning Gibbous, 85% visible
METAR KCRE 231353Z 16006KT 10SM FEW015 SCT025 BKN060 27/24 A3004 RMK AO1 LTG DSNT SE AND S SLP172 T02720239

10-Day Weather Forecast

Almanac

Astronomy

Jul. 23, 2016 Rise Set
Actual Time
Civil Twilight
Nautical Twilight
Astronomical Twilight
Moon
Length of Visible Light
Length of Day
Tomorrow will be .
, % of the Moon is Illuminated

Today's Extremes

State Highs State Lows

Community

WunderPhotos

Upload Photos

1,926,821 photos uploaded!

WunderBlog® & News

Nearby

Air Quality

  Air Quality AQ Index Pollutant
Not available.

Snow Depth

Station Depth Elevation

Earthquake Activity

City Distance Mag. Time & Date
Minimum magnitude displayed is 2.5.

Coastal Water Temperatures

Place Temperature

Stations

Nearby Weather Stations

Station Location Temp. Windchill Dew Point Humidity Wind Precip. Elev Updated Type
                   

Watches & Warnings

There are currently no watches in effect.